sensor_id;sensor_type;location;lat;lon;timestamp;pressure;altitude;pressure_sealevel;temperature;humidity
45078;BME280;60508;42.622;25.416;2022-12-24T00:02:18;96548.06;;;4.77;70.03
45078;BME280;60508;42.622;25.416;2022-12-24T00:04:44;96552.97;;;4.80;70.17
45078;BME280;60508;42.622;25.416;2022-12-24T00:07:10;96547.03;;;4.85;69.94
45078;BME280;60508;42.622;25.416;2022-12-24T00:09:37;96553.59;;;4.75;70.96
45078;BME280;60508;42.622;25.416;2022-12-24T00:12:03;96547.16;;;4.97;71.38
45078;BME280;60508;42.622;25.416;2022-12-24T00:14:29;96565.94;;;4.63;70.07
45078;BME280;60508;42.622;25.416;2022-12-24T00:16:55;96567.16;;;4.67;70.77
45078;BME280;60508;42.622;25.416;2022-12-24T00:19:21;96576.19;;;4.60;71.24
45078;BME280;60508;42.622;25.416;2022-12-24T00:21:47;96588.28;;;4.49;72.06
45078;BME280;60508;42.622;25.416;2022-12-24T00:24:13;96583.44;;;4.32;73.01
45078;BME280;60508;42.622;25.416;2022-12-24T00:26:39;96579.97;;;4.32;73.59
45078;BME280;60508;42.622;25.416;2022-12-24T00:29:05;96566.09;;;4.23;73.33
45078;BME280;60508;42.622;25.416;2022-12-24T00:31:31;96576.69;;;4.30;73.42
45078;BME280;60508;42.622;25.416;2022-12-24T00:33:57;96576.91;;;4.28;73.52
45078;BME280;60508;42.622;25.416;2022-12-24T00:36:23;96580.19;;;4.17;73.65
45078;BME280;60508;42.622;25.416;2022-12-24T00:38:49;96572.22;;;4.24;73.58
45078;BME280;60508;42.622;25.416;2022-12-24T00:41:15;96573.22;;;4.23;73.92
45078;BME280;60508;42.622;25.416;2022-12-24T00:44:04;96573.41;;;4.41;73.48
45078;BME280;60508;42.622;25.416;2022-12-24T00:46:32;96569.25;;;4.52;73.28
45078;BME280;60508;42.622;25.416;2022-12-24T00:48:59;96565.69;;;4.71;72.39
45078;BME280;60508;42.622;25.416;2022-12-24T00:51:25;96558.50;;;4.79;71.91
45078;BME280;60508;42.622;25.416;2022-12-24T00:53:51;96554.72;;;5.00;70.98
45078;BME280;60508;42.622;25.416;2022-12-24T00:56:18;96552.72;;;4.88;69.94
45078;BME280;60508;42.622;25.416;2022-12-24T00:58:45;96555.56;;;4.93;70.21
45078;BME280;60508;42.622;25.416;2022-12-24T01:01:11;96553.06;;;4.99;70.38
45078;BME280;60508;42.622;25.416;2022-12-24T01:03:37;96557.97;;;5.02;69.72
45078;BME280;60508;42.622;25.416;2022-12-24T01:06:10;96539.16;;;4.97;69.54
45078;BME280;60508;42.622;25.416;2022-12-24T01:08:37;96552.66;;;5.02;69.31
45078;BME280;60508;42.622;25.416;2022-12-24T01:11:04;96554.94;;;4.98;68.32
45078;BME280;60508;42.622;25.416;2022-12-24T01:13:30;96552.53;;;4.90;68.71
45078;BME280;60508;42.622;25.416;2022-12-24T01:15:56;96546.59;;;4.81;69.53
45078;BME280;60508;42.622;25.416;2022-12-24T01:18:23;96539.72;;;4.73;69.75
45078;BME280;60508;42.622;25.416;2022-12-24T01:21:01;96537.84;;;4.74;70.35
45078;BME280;60508;42.622;25.416;2022-12-24T01:23:28;96540.34;;;4.69;70.39
45078;BME280;60508;42.622;25.416;2022-12-24T01:25:54;96526.88;;;4.57;71.50
45078;BME280;60508;42.622;25.416;2022-12-24T01:28:24;96538.75;;;4.54;71.44
45078;BME280;60508;42.622;25.416;2022-12-24T01:30:50;96539.59;;;4.48;71.22
45078;BME280;60508;42.622;25.416;2022-12-24T01:33:16;96533.47;;;4.48;72.15
45078;BME280;60508;42.622;25.416;2022-12-24T01:35:42;96519.38;;;4.34;73.01
45078;BME280;60508;42.622;25.416;2022-12-24T01:38:10;96530.44;;;4.31;72.20
45078;BME280;60508;42.622;25.416;2022-12-24T01:40:37;96529.44;;;4.25;72.80
45078;BME280;60508;42.622;25.416;2022-12-24T01:43:23;96515.75;;;4.28;73.74
45078;BME280;60508;42.622;25.416;2022-12-24T01:45:53;96527.53;;;4.39;74.41
45078;BME280;60508;42.622;25.416;2022-12-24T01:51:24;96539.47;;;4.30;75.63
45078;BME280;60508;42.622;25.416;2022-12-24T01:54:28;96527.94;;;4.49;74.71
45078;BME280;60508;42.622;25.416;2022-12-24T01:57:02;96530.16;;;4.59;74.55
45078;BME280;60508;42.622;25.416;2022-12-24T01:59:29;96525.78;;;4.71;74.40
45078;BME280;60508;42.622;25.416;2022-12-24T02:01:57;96530.50;;;4.69;74.17
45078;BME280;60508;42.622;25.416;2022-12-24T02:04:29;96531.97;;;4.65;74.17
45078;BME280;60508;42.622;25.416;2022-12-24T02:06:57;96532.56;;;4.67;74.27
45078;BME280;60508;42.622;25.416;2022-12-24T02:09:23;96538.06;;;4.72;74.25
45078;BME280;60508;42.622;25.416;2022-12-24T02:11:49;96525.59;;;4.66;74.21
45078;BME280;60508;42.622;25.416;2022-12-24T02:14:16;96539.50;;;4.75;74.20
45078;BME280;60508;42.622;25.416;2022-12-24T02:17:20;96539.72;;;4.73;74.54
45078;BME280;60508;42.622;25.416;2022-12-24T02:25:25;96536.47;;;5.03;73.55
45078;BME280;60508;42.622;25.416;2022-12-24T02:28:41;96516.97;;;5.09;72.81
45078;BME280;60508;42.622;25.416;2022-12-24T02:31:15;96513.09;;;5.05;72.85
45078;BME280;60508;42.622;25.416;2022-12-24T02:33:59;96527.97;;;4.88;71.75
45078;BME280;60508;42.622;25.416;2022-12-24T02:36:32;96529.41;;;4.84;71.93
45078;BME280;60508;42.622;25.416;2022-12-24T02:39:03;96528.66;;;4.70;71.11
45078;BME280;60508;42.622;25.416;2022-12-24T02:41:35;96536.34;;;4.46;71.46
45078;BME280;60508;42.622;25.416;2022-12-24T02:44:24;96540.25;;;4.37;71.60
45078;BME280;60508;42.622;25.416;2022-12-24T02:46:52;96535.97;;;4.29;72.82
45078;BME280;60508;42.622;25.416;2022-12-24T02:49:18;96522.69;;;4.23;73.53
45078;BME280;60508;42.622;25.416;2022-12-24T02:51:44;96528.41;;;4.33;74.25
45078;BME280;60508;42.622;25.416;2022-12-24T02:54:11;96534.28;;;4.48;75.16
45078;BME280;60508;42.622;25.416;2022-12-24T02:57:07;96529.88;;;4.74;75.48
45078;BME280;60508;42.622;25.416;2022-12-24T02:59:56;96536.53;;;4.90;74.81
45078;BME280;60508;42.622;25.416;2022-12-24T03:02:25;96531.97;;;4.97;73.60
45078;BME280;60508;42.622;25.416;2022-12-24T03:05:16;96534.84;;;4.96;72.81
45078;BME280;60508;42.622;25.416;2022-12-24T03:10:20;96537.06;;;4.67;74.53
45078;BME280;60508;42.622;25.416;2022-12-24T03:12:51;96532.28;;;4.82;74.00
45078;BME280;60508;42.622;25.416;2022-12-24T03:15:23;96516.41;;;5.01;73.50
45078;BME280;60508;42.622;25.416;2022-12-24T03:17:51;96528.22;;;5.11;73.52
45078;BME280;60508;42.622;25.416;2022-12-24T03:20:21;96527.25;;;4.67;70.92
45078;BME280;60508;42.622;25.416;2022-12-24T03:22:50;96522.75;;;4.61;71.36
45078;BME280;60508;42.622;25.416;2022-12-24T03:25:16;96541.00;;;4.57;71.68
45078;BME280;60508;42.622;25.416;2022-12-24T03:27:42;96532.66;;;4.41;71.89
45078;BME280;60508;42.622;25.416;2022-12-24T03:30:11;96526.97;;;4.30;71.96
45078;BME280;60508;42.622;25.416;2022-12-24T03:32:37;96536.84;;;4.03;72.90
45078;BME280;60508;42.622;25.416;2022-12-24T03:35:04;96541.19;;;3.97;74.07
45078;BME280;60508;42.622;25.416;2022-12-24T03:37:31;96546.50;;;3.97;74.28
45078;BME280;60508;42.622;25.416;2022-12-24T03:39:57;96545.47;;;3.92;73.74
45078;BME280;60508;42.622;25.416;2022-12-24T03:42:23;96540.19;;;3.72;73.80
45078;BME280;60508;42.622;25.416;2022-12-24T03:44:49;96533.84;;;3.46;75.19
45078;BME280;60508;42.622;25.416;2022-12-24T03:47:15;96531.19;;;3.46;76.46
45078;BME280;60508;42.622;25.416;2022-12-24T03:49:41;96538.13;;;3.74;75.83
45078;BME280;60508;42.622;25.416;2022-12-24T03:52:07;96534.66;;;3.87;75.09
45078;BME280;60508;42.622;25.416;2022-12-24T03:54:32;96541.22;;;3.64;75.03
45078;BME280;60508;42.622;25.416;2022-12-24T03:56:58;96527.09;;;3.70;74.63
45078;BME280;60508;42.622;25.416;2022-12-24T03:59:24;96532.63;;;3.75;74.54
45078;BME280;60508;42.622;25.416;2022-12-24T04:01:52;96529.13;;;3.68;75.44
45078;BME280;60508;42.622;25.416;2022-12-24T04:04:18;96523.00;;;3.74;75.60
45078;BME280;60508;42.622;25.416;2022-12-24T04:06:44;96514.63;;;3.77;75.62
45078;BME280;60508;42.622;25.416;2022-12-24T04:09:10;96522.00;;;3.75;75.94
45078;BME280;60508;42.622;25.416;2022-12-24T04:11:35;96526.28;;;3.70;75.89
45078;BME280;60508;42.622;25.416;2022-12-24T04:14:01;96529.97;;;3.69;76.54
45078;BME280;60508;42.622;25.416;2022-12-24T04:16:27;96529.75;;;3.70;76.55
45078;BME280;60508;42.622;25.416;2022-12-24T04:18:53;96527.31;;;3.75;77.34
45078;BME280;60508;42.622;25.416;2022-12-24T04:21:19;96511.56;;;3.74;77.31
45078;BME280;60508;42.622;25.416;2022-12-24T04:23:46;96521.38;;;3.80;77.36
45078;BME280;60508;42.622;25.416;2022-12-24T04:26:12;96519.94;;;3.71;76.54
45078;BME280;60508;42.622;25.416;2022-12-24T04:28:40;96532.81;;;3.67;76.72
45078;BME280;60508;42.622;25.416;2022-12-24T04:31:09;96519.75;;;3.65;77.85
45078;BME280;60508;42.622;25.416;2022-12-24T04:33:36;96535.25;;;3.82;78.26
45078;BME280;60508;42.622;25.416;2022-12-24T04:36:03;96537.88;;;3.95;78.51
45078;BME280;60508;42.622;25.416;2022-12-24T04:38:29;96536.28;;;3.88;77.93
45078;BME280;60508;42.622;25.416;2022-12-24T04:41:04;96530.13;;;3.87;77.34
45078;BME280;60508;42.622;25.416;2022-12-24T04:43:31;96533.41;;;3.82;76.41
45078;BME280;60508;42.622;25.416;2022-12-24T04:46:07;96527.53;;;3.60;78.54
45078;BME280;60508;42.622;25.416;2022-12-24T04:48:33;96520.38;;;3.61;78.85
45078;BME280;60508;42.622;25.416;2022-12-24T04:51:07;96517.69;;;3.74;78.77
45078;BME280;60508;42.622;25.416;2022-12-24T04:53:34;96517.06;;;3.86;78.69
45078;BME280;60508;42.622;25.416;2022-12-24T04:56:00;96527.06;;;3.97;78.84
45078;BME280;60508;42.622;25.416;2022-12-24T04:58:26;96525.38;;;4.16;78.76
45078;BME280;60508;42.622;25.416;2022-12-24T05:00:53;96529.25;;;4.27;78.15
45078;BME280;60508;42.622;25.416;2022-12-24T05:03:19;96532.63;;;4.54;77.35
45078;BME280;60508;42.622;25.416;2022-12-24T05:05:45;96523.78;;;4.60;74.43
45078;BME280;60508;42.622;25.416;2022-12-24T05:08:10;96536.34;;;4.46;74.12
45078;BME280;60508;42.622;25.416;2022-12-24T05:10:36;96535.13;;;4.35;73.82
45078;BME280;60508;42.622;25.416;2022-12-24T05:13:02;96530.91;;;4.14;74.77
45078;BME280;60508;42.622;25.416;2022-12-24T05:15:28;96536.25;;;4.08;75.24
45078;BME280;60508;42.622;25.416;2022-12-24T05:17:54;96527.06;;;3.97;76.16
45078;BME280;60508;42.622;25.416;2022-12-24T05:20:20;96522.16;;;3.94;76.21
45078;BME280;60508;42.622;25.416;2022-12-24T05:22:46;96522.19;;;3.80;76.60
45078;BME280;60508;42.622;25.416;2022-12-24T05:25:34;96520.75;;;3.64;78.11
45078;BME280;60508;42.622;25.416;2022-12-24T05:28:20;96524.22;;;3.58;78.88
45078;BME280;60508;42.622;25.416;2022-12-24T05:30:46;96529.78;;;3.63;79.59
45078;BME280;60508;42.622;25.416;2022-12-24T05:33:12;96532.00;;;3.73;79.56
45078;BME280;60508;42.622;25.416;2022-12-24T05:35:38;96542.44;;;3.61;79.75
45078;BME280;60508;42.622;25.416;2022-12-24T05:38:05;96540.81;;;3.67;79.93
45078;BME280;60508;42.622;25.416;2022-12-24T05:40:30;96549.56;;;3.68;78.95
45078;BME280;60508;42.622;25.416;2022-12-24T05:42:56;96566.53;;;3.60;79.11
45078;BME280;60508;42.622;25.416;2022-12-24T05:45:22;96558.56;;;3.46;79.66
45078;BME280;60508;42.622;25.416;2022-12-24T05:47:48;96553.47;;;3.38;80.00
45078;BME280;60508;42.622;25.416;2022-12-24T05:50:14;96556.13;;;3.45;80.10
45078;BME280;60508;42.622;25.416;2022-12-24T05:52:40;96564.72;;;3.54;80.29
45078;BME280;60508;42.622;25.416;2022-12-24T05:55:06;96560.22;;;3.61;80.20
45078;BME280;60508;42.622;25.416;2022-12-24T05:57:33;96558.38;;;3.75;79.77
45078;BME280;60508;42.622;25.416;2022-12-24T06:00:00;96539.78;;;3.75;78.98
45078;BME280;60508;42.622;25.416;2022-12-24T06:02:26;96562.22;;;3.86;78.67
45078;BME280;60508;42.622;25.416;2022-12-24T06:04:52;96565.31;;;3.76;78.66
45078;BME280;60508;42.622;25.416;2022-12-24T06:07:18;96569.22;;;3.80;79.31
45078;BME280;60508;42.622;25.416;2022-12-24T06:09:44;96565.94;;;3.84;78.74
45078;BME280;60508;42.622;25.416;2022-12-24T06:12:10;96577.75;;;3.95;78.00
45078;BME280;60508;42.622;25.416;2022-12-24T06:14:36;96576.75;;;3.96;77.81
45078;BME280;60508;42.622;25.416;2022-12-24T06:17:01;96574.28;;;3.95;78.14
45078;BME280;60508;42.622;25.416;2022-12-24T06:19:27;96583.84;;;4.23;77.69
45078;BME280;60508;42.622;25.416;2022-12-24T06:21:53;96578.09;;;4.32;77.62
45078;BME280;60508;42.622;25.416;2022-12-24T06:24:19;96578.09;;;4.39;77.32
45078;BME280;60508;42.622;25.416;2022-12-24T06:26:45;96586.06;;;4.52;76.79
45078;BME280;60508;42.622;25.416;2022-12-24T06:29:11;96574.69;;;4.77;75.63
45078;BME280;60508;42.622;25.416;2022-12-24T06:31:37;96571.53;;;4.93;75.26
45078;BME280;60508;42.622;25.416;2022-12-24T06:34:02;96572.72;;;5.04;74.05
45078;BME280;60508;42.622;25.416;2022-12-24T06:36:28;96576.53;;;5.15;73.54
45078;BME280;60508;42.622;25.416;2022-12-24T06:38:54;96572.28;;;5.39;73.71
45078;BME280;60508;42.622;25.416;2022-12-24T06:41:21;96564.22;;;5.53;72.91
45078;BME280;60508;42.622;25.416;2022-12-24T06:43:49;96565.31;;;5.70;72.38
45078;BME280;60508;42.622;25.416;2022-12-24T06:46:16;96568.97;;;6.01;71.77
45078;BME280;60508;42.622;25.416;2022-12-24T06:48:43;96574.13;;;6.21;69.80
45078;BME280;60508;42.622;25.416;2022-12-24T06:51:11;96572.34;;;6.33;69.58
45078;BME280;60508;42.622;25.416;2022-12-24T06:53:37;96576.00;;;6.57;68.73
45078;BME280;60508;42.622;25.416;2022-12-24T06:56:05;96567.16;;;6.75;67.47
45078;BME280;60508;42.622;25.416;2022-12-24T06:58:32;96568.41;;;6.91;67.56
45078;BME280;60508;42.622;25.416;2022-12-24T07:01:02;96566.75;;;7.09;66.55
45078;BME280;60508;42.622;25.416;2022-12-24T07:03:30;96562.53;;;7.31;66.05
45078;BME280;60508;42.622;25.416;2022-12-24T07:05:56;96561.41;;;7.51;65.21
45078;BME280;60508;42.622;25.416;2022-12-24T07:08:22;96560.16;;;7.77;64.63
45078;BME280;60508;42.622;25.416;2022-12-24T07:10:49;96566.47;;;7.95;63.43
45078;BME280;60508;42.622;25.416;2022-12-24T07:13:15;96566.59;;;8.00;62.76
45078;BME280;60508;42.622;25.416;2022-12-24T07:15:41;96562.88;;;8.13;62.80
45078;BME280;60508;42.622;25.416;2022-12-24T07:18:07;96572.16;;;8.46;62.33
45078;BME280;60508;42.622;25.416;2022-12-24T07:20:34;96580.06;;;8.64;61.46
45078;BME280;60508;42.622;25.416;2022-12-24T07:23:00;96565.13;;;8.80;60.91
45078;BME280;60508;42.622;25.416;2022-12-24T07:25:26;96573.31;;;9.02;60.71
45078;BME280;60508;42.622;25.416;2022-12-24T07:27:52;96572.78;;;9.17;60.20
45078;BME280;60508;42.622;25.416;2022-12-24T07:30:18;96579.94;;;9.11;59.01
45078;BME280;60508;42.622;25.416;2022-12-24T07:32:44;96578.03;;;9.24;59.16
45078;BME280;60508;42.622;25.416;2022-12-24T07:35:10;96573.66;;;9.35;57.68
45078;BME280;60508;42.622;25.416;2022-12-24T07:37:36;96570.66;;;9.31;57.70
45078;BME280;60508;42.622;25.416;2022-12-24T07:40:02;96573.25;;;9.43;56.94
45078;BME280;60508;42.622;25.416;2022-12-24T07:42:33;96581.47;;;9.36;57.27
45078;BME280;60508;42.622;25.416;2022-12-24T07:44:59;96582.19;;;9.31;57.35
45078;BME280;60508;42.622;25.416;2022-12-24T07:47:25;96580.25;;;9.27;57.85
45078;BME280;60508;42.622;25.416;2022-12-24T07:49:51;96581.22;;;9.38;57.51
45078;BME280;60508;42.622;25.416;2022-12-24T07:52:16;96579.88;;;9.52;57.15
45078;BME280;60508;42.622;25.416;2022-12-24T07:54:43;96582.72;;;9.62;56.31
45078;BME280;60508;42.622;25.416;2022-12-24T07:57:08;96586.00;;;9.64;56.35
45078;BME280;60508;42.622;25.416;2022-12-24T07:59:35;96582.78;;;9.50;57.58
45078;BME280;60508;42.622;25.416;2022-12-24T08:02:00;96578.28;;;9.68;56.26
45078;BME280;60508;42.622;25.416;2022-12-24T08:04:26;96572.53;;;9.93;55.80
45078;BME280;60508;42.622;25.416;2022-12-24T08:06:55;96571.03;;;10.19;55.14
45078;BME280;60508;42.622;25.416;2022-12-24T08:09:21;96572.03;;;10.69;53.54
45078;BME280;60508;42.622;25.416;2022-12-24T08:11:47;96567.59;;;11.29;51.69
45078;BME280;60508;42.622;25.416;2022-12-24T08:14:13;96570.09;;;11.63;50.72
45078;BME280;60508;42.622;25.416;2022-12-24T08:16:39;96580.81;;;11.91;49.01
45078;BME280;60508;42.622;25.416;2022-12-24T08:19:05;96585.84;;;11.82;48.92
45078;BME280;60508;42.622;25.416;2022-12-24T08:21:31;96586.41;;;11.51;50.04
45078;BME280;60508;42.622;25.416;2022-12-24T08:23:56;96579.63;;;12.46;47.88
45078;BME280;60508;42.622;25.416;2022-12-24T08:26:23;96581.72;;;13.50;45.57
45078;BME280;60508;42.622;25.416;2022-12-24T08:28:49;96580.38;;;14.35;42.77
45078;BME280;60508;42.622;25.416;2022-12-24T08:31:14;96584.53;;;15.08;41.76
45078;BME280;60508;42.622;25.416;2022-12-24T08:33:40;96590.13;;;15.27;40.90
45078;BME280;60508;42.622;25.416;2022-12-24T08:36:07;96585.50;;;14.62;42.02
45078;BME280;60508;42.622;25.416;2022-12-24T08:38:33;96589.97;;;15.03;41.29
45078;BME280;60508;42.622;25.416;2022-12-24T08:40:59;96588.84;;;16.09;39.78
45078;BME280;60508;42.622;25.416;2022-12-24T08:43:25;96582.75;;;17.05;37.83
45078;BME280;60508;42.622;25.416;2022-12-24T08:45:52;96579.72;;;16.82;37.91
45078;BME280;60508;42.622;25.416;2022-12-24T08:48:18;96576.19;;;15.94;39.36
45078;BME280;60508;42.622;25.416;2022-12-24T08:50:44;96581.69;;;15.39;40.72
45078;BME280;60508;42.622;25.416;2022-12-24T08:53:10;96564.16;;;15.70;40.66
45078;BME280;60508;42.622;25.416;2022-12-24T08:55:37;96552.28;;;16.59;38.54
45078;BME280;60508;42.622;25.416;2022-12-24T08:58:03;96564.44;;;18.11;36.30
45078;BME280;60508;42.622;25.416;2022-12-24T09:00:29;96562.66;;;19.86;33.41
45078;BME280;60508;42.622;25.416;2022-12-24T09:02:56;96569.09;;;22.17;29.65
45078;BME280;60508;42.622;25.416;2022-12-24T09:05:22;96574.72;;;24.05;27.23
45078;BME280;60508;42.622;25.416;2022-12-24T09:07:48;96561.13;;;25.25;25.43
45078;BME280;60508;42.622;25.416;2022-12-24T09:10:13;96573.16;;;26.67;23.78
45078;BME280;60508;42.622;25.416;2022-12-24T09:12:39;96573.91;;;27.98;21.82
45078;BME280;60508;42.622;25.416;2022-12-24T09:15:06;96577.19;;;28.86;20.68
45078;BME280;60508;42.622;25.416;2022-12-24T09:17:33;96572.97;;;28.30;20.96
45078;BME280;60508;42.622;25.416;2022-12-24T09:20:00;96571.66;;;26.85;21.81
45078;BME280;60508;42.622;25.416;2022-12-24T09:22:26;96575.47;;;25.43;23.13
45078;BME280;60508;42.622;25.416;2022-12-24T09:24:55;96568.75;;;24.36;24.64
45078;BME280;60508;42.622;25.416;2022-12-24T09:27:21;96576.13;;;23.01;26.30
45078;BME280;60508;42.622;25.416;2022-12-24T09:29:47;96572.94;;;21.55;28.19
45078;BME280;60508;42.622;25.416;2022-12-24T09:32:13;96568.66;;;20.20;30.42
45078;BME280;60508;42.622;25.416;2022-12-24T09:34:39;96566.69;;;19.25;31.92
45078;BME280;60508;42.622;25.416;2022-12-24T09:37:05;96570.25;;;18.37;33.10
45078;BME280;60508;42.622;25.416;2022-12-24T09:39:31;96563.50;;;17.82;33.99
45078;BME280;60508;42.622;25.416;2022-12-24T09:44:45;96554.00;;;16.79;36.54
45078;BME280;60508;42.622;25.416;2022-12-24T09:47:27;96557.88;;;15.80;38.42
45078;BME280;60508;42.622;25.416;2022-12-24T09:49:56;96559.47;;;15.42;38.72
45078;BME280;60508;42.622;25.416;2022-12-24T09:52:40;96563.63;;;15.24;39.40
45078;BME280;60508;42.622;25.416;2022-12-24T09:55:26;96558.03;;;15.05;39.85
45078;BME280;60508;42.622;25.416;2022-12-24T09:57:54;96551.84;;;14.99;40.23
45078;BME280;60508;42.622;25.416;2022-12-24T10:00:26;96552.38;;;15.01;40.40
45078;BME280;60508;42.622;25.416;2022-12-24T10:02:53;96547.53;;;14.93;40.27
45078;BME280;60508;42.622;25.416;2022-12-24T10:05:28;96548.97;;;14.75;40.50
45078;BME280;60508;42.622;25.416;2022-12-24T10:08:04;96551.88;;;14.84;40.87
45078;BME280;60508;42.622;25.416;2022-12-24T10:10:54;96540.59;;;14.71;42.16
45078;BME280;60508;42.622;25.416;2022-12-24T10:13:43;96547.88;;;14.71;42.56
45078;BME280;60508;42.622;25.416;2022-12-24T10:22:27;96536.91;;;13.75;45.40
45078;BME280;60508;42.622;25.416;2022-12-24T10:27:33;96530.44;;;13.55;46.95
45078;BME280;60508;42.622;25.416;2022-12-24T10:30:13;96523.59;;;13.32;47.19
45078;BME280;60508;42.622;25.416;2022-12-24T10:32:40;96528.66;;;13.08;48.64
45078;BME280;60508;42.622;25.416;2022-12-24T10:37:40;96525.09;;;12.82;49.54
45078;BME280;60508;42.622;25.416;2022-12-24T10:40:13;96512.97;;;12.79;49.40
45078;BME280;60508;42.622;25.416;2022-12-24T10:42:41;96517.28;;;12.85;49.29
45078;BME280;60508;42.622;25.416;2022-12-24T10:45:13;96516.22;;;12.96;49.25
45078;BME280;60508;42.622;25.416;2022-12-24T10:47:43;96526.81;;;13.13;49.11
45078;BME280;60508;42.622;25.416;2022-12-24T10:50:23;96520.09;;;13.26;49.11
45078;BME280;60508;42.622;25.416;2022-12-24T10:52:55;96511.50;;;13.35;47.73
45078;BME280;60508;42.622;25.416;2022-12-24T10:55:25;96524.50;;;13.58;47.14
45078;BME280;60508;42.622;25.416;2022-12-24T10:58:17;96517.19;;;13.69;47.20
45078;BME280;60508;42.622;25.416;2022-12-24T11:00:53;96502.88;;;13.94;45.92
45078;BME280;60508;42.622;25.416;2022-12-24T11:06:01;96520.72;;;15.46;42.82
45078;BME280;60508;42.622;25.416;2022-12-24T11:08:27;96509.13;;;15.36;42.16
45078;BME280;60508;42.622;25.416;2022-12-24T11:11:02;96515.16;;;15.27;42.39
45078;BME280;60508;42.622;25.416;2022-12-24T11:13:44;96523.34;;;15.17;42.70
45078;BME280;60508;42.622;25.416;2022-12-24T11:16:22;96519.09;;;15.01;43.38
45078;BME280;60508;42.622;25.416;2022-12-24T11:18:51;96523.22;;;14.88;43.75
45078;BME280;60508;42.622;25.416;2022-12-24T11:21:56;96523.59;;;14.60;44.78
45078;BME280;60508;42.622;25.416;2022-12-24T11:24:28;96529.06;;;14.24;45.20
45078;BME280;60508;42.622;25.416;2022-12-24T11:27:48;96525.56;;;13.93;46.41
45078;BME280;60508;42.622;25.416;2022-12-24T11:33:14;96527.44;;;13.51;47.35
45078;BME280;60508;42.622;25.416;2022-12-24T11:35:45;96521.22;;;13.41;47.78
45078;BME280;60508;42.622;25.416;2022-12-24T11:38:20;96518.28;;;13.47;46.99
45078;BME280;60508;42.622;25.416;2022-12-24T11:40:49;96517.19;;;14.05;46.08
45078;BME280;60508;42.622;25.416;2022-12-24T11:43:22;96520.91;;;15.60;42.70
45078;BME280;60508;42.622;25.416;2022-12-24T11:45:51;96520.59;;;17.79;37.99
45078;BME280;60508;42.622;25.416;2022-12-24T11:48:29;96519.22;;;18.75;35.08
45078;BME280;60508;42.622;25.416;2022-12-24T11:51:06;96507.41;;;20.26;31.69
45078;BME280;60508;42.622;25.416;2022-12-24T11:53:48;96517.78;;;20.47;30.70
45078;BME280;60508;42.622;25.416;2022-12-24T11:58:51;96510.81;;;19.27;32.64
45078;BME280;60508;42.622;25.416;2022-12-24T12:01:39;96504.69;;;19.22;32.99
45078;BME280;60508;42.622;25.416;2022-12-24T12:04:12;96496.13;;;18.59;34.46
45078;BME280;60508;42.622;25.416;2022-12-24T12:09:46;96492.97;;;17.20;36.68
45078;BME280;60508;42.622;25.416;2022-12-24T12:12:20;96486.66;;;17.06;38.50
45078;BME280;60508;42.622;25.416;2022-12-24T12:14:50;96489.16;;;16.78;39.17
45078;BME280;60508;42.622;25.416;2022-12-24T12:17:35;96494.25;;;16.60;39.67
45078;BME280;60508;42.622;25.416;2022-12-24T12:20:15;96499.09;;;16.39;39.89
45078;BME280;60508;42.622;25.416;2022-12-24T12:25:51;96498.81;;;15.82;42.28
45078;BME280;60508;42.622;25.416;2022-12-24T12:28:40;96495.03;;;15.44;43.15
45078;BME280;60508;42.622;25.416;2022-12-24T12:33:42;96493.69;;;14.96;43.69
45078;BME280;60508;42.622;25.416;2022-12-24T12:36:10;96494.06;;;14.74;43.87
45078;BME280;60508;42.622;25.416;2022-12-24T12:38:39;96488.97;;;14.63;43.42
45078;BME280;60508;42.622;25.416;2022-12-24T12:52:40;96498.03;;;14.06;45.33
45078;BME280;60508;42.622;25.416;2022-12-24T12:58:29;96514.75;;;14.09;45.86
45078;BME280;60508;42.622;25.416;2022-12-24T13:01:04;96505.28;;;14.06;46.74
45078;BME280;60508;42.622;25.416;2022-12-24T13:11:49;96507.47;;;13.83;46.83
45078;BME280;60508;42.622;25.416;2022-12-24T13:17:18;96515.31;;;13.54;47.17
45078;BME280;60508;42.622;25.416;2022-12-24T13:23:12;96517.97;;;13.33;49.29
45078;BME280;60508;42.622;25.416;2022-12-24T13:25:50;96517.44;;;13.42;49.20
45078;BME280;60508;42.622;25.416;2022-12-24T13:28:37;96524.44;;;13.27;49.50
45078;BME280;60508;42.622;25.416;2022-12-24T13:33:48;96518.72;;;13.24;49.98
45078;BME280;60508;42.622;25.416;2022-12-24T13:36:15;96512.00;;;13.21;50.06
45078;BME280;60508;42.622;25.416;2022-12-24T13:38:50;96518.41;;;13.00;50.37
45078;BME280;60508;42.622;25.416;2022-12-24T13:44:02;96524.66;;;13.10;50.90
45078;BME280;60508;42.622;25.416;2022-12-24T13:49:18;96528.38;;;12.89;51.78
45078;BME280;60508;42.622;25.416;2022-12-24T13:51:44;96518.09;;;12.86;51.80
45078;BME280;60508;42.622;25.416;2022-12-24T13:54:13;96512.13;;;12.73;52.00
45078;BME280;60508;42.622;25.416;2022-12-24T13:56:40;96519.94;;;12.75;52.47
45078;BME280;60508;42.622;25.416;2022-12-24T13:59:25;96515.31;;;12.65;52.30
45078;BME280;60508;42.622;25.416;2022-12-24T14:01:58;96520.16;;;12.63;53.12
45078;BME280;60508;42.622;25.416;2022-12-24T14:04:33;96512.03;;;12.53;53.72
45078;BME280;60508;42.622;25.416;2022-12-24T14:07:02;96514.19;;;12.51;53.83
45078;BME280;60508;42.622;25.416;2022-12-24T14:09:30;96523.63;;;12.53;53.30
45078;BME280;60508;42.622;25.416;2022-12-24T14:14:30;96529.03;;;12.53;53.76
45078;BME280;60508;42.622;25.416;2022-12-24T14:17:01;96530.06;;;12.47;54.95
45078;BME280;60508;42.622;25.416;2022-12-24T14:19:37;96529.69;;;12.33;55.47
45078;BME280;60508;42.622;25.416;2022-12-24T14:25:19;96533.38;;;12.17;55.74
45078;BME280;60508;42.622;25.416;2022-12-24T14:28:04;96534.41;;;12.11;54.27
45078;BME280;60508;42.622;25.416;2022-12-24T14:30:32;96534.94;;;12.08;53.71
45078;BME280;60508;42.622;25.416;2022-12-24T14:32:58;96541.94;;;12.09;54.33
45078;BME280;60508;42.622;25.416;2022-12-24T14:35:28;96548.66;;;12.06;54.20